Saint Thomas, VI (00801)

3:30 AM AST on May 29, 2017 (GMT -0400)
Cape Air, Crown Mountain Summit, St. Thomas, USVI | | Change Station

Elev 1534 ft 18.36 °N, 64.97 °W | Updated 1 second ago

Scattered Clouds
Scattered Clouds
72.1 °F
Feels Like 72 °F
N
11.0
Wind Variable Wind from SE
Gusts 12.0 mph

Today
High -- | Low -- °F
--% Chance of Precip.
Yesterday
High -- | Low -- °F
Precip. -- in
Pressure 30.03 in
Visibility 10.0 miles
Clouds Few 8000 ft
Scattered Clouds 10000 ft
Heat Index 72 °F
Dew Point 66 °F
Humidity 82%
Rainfall 0.02 in
Snow Depth Not available.
5:43 AM 6:51 PM
Waxing Crescent, 17% visible
METAR TIST 290653Z 09010KT 10SM FEW080 SCT100 27/24 A3003 RMK AO2 SLP168 T02720244
Pressure 30.03 in
Visibility 10.0 miles
Clouds Few 8000 ft
Scattered Clouds 10000 ft
Heat Index 72 °F
Dew Point 66 °F
Humidity 82%
Rainfall 0.02 in
Snow Depth Not available.
5:43 AM 6:51 PM
Waxing Crescent, 17% visible
METAR TIST 290653Z 09010KT 10SM FEW080 SCT100 27/24 A3003 RMK AO2 SLP168 T02720244

Get Severe Weather Alerts

Thanks for signing up!

Be on the lookout for a verification email in your inbox.

You'll start receiving the daily forecast at 6 AM.

×

10-Day Weather Forecast

Almanac

Astronomy

May. 29, 2017 Rise Set
Actual Time
Civil Twilight
Nautical Twilight
Astronomical Twilight
Moon
Length of Visible Light
Length of Day
Tomorrow will be .
, % of the Moon is Illuminated

Today's Extremes

State Highs State Lows

Community

WunderPhotos

Category 6

Welcome to Category 6. This is the collective home for Weather Underground's featured writeups by Dr. Jeff Masters (right), Bob Henson (left), Chris Burt, and other regular contributors.

Nearby

Air Quality

  Air Quality AQ Index Pollutant
Not available.

Snow Depth

Station Depth Elevation

Earthquake Activity

City Distance Mag. Time & Date
Minimum magnitude displayed is 2.5.

Coastal Water Temperatures

Place Temperature

Stations

Nearby Weather Stations

Station Location Temp. Windchill Dew Point Humidity Wind Precip. Elev Updated Type
                   

Watches & Warnings

There are currently no watches in effect.